Time;durP1;ratioP1;P1;durP2;ratioP2;P2;SDS_P1;SDS_P2;PMS_P1;PMS_P2;Temp;Humidity;BMP_temperature;BMP_pressure;BME280_temperature;BME280_humidity;BME280_pressure;Samples;Min_cycle;Max_cycle;Signal;HPM_P1;HPM_P2
2021/12/21 00:01:35;;;;;;;6.87;3.67;;;-2.40;99.90;;;-1.38;100.00;99035.03;5046706;28;20526;-77
2021/12/21 00:04:05;;;;;;;8.73;3.77;;;-2.40;99.90;;;-1.44;100.00;99023.41;5046282;28;20526;-77
2021/12/21 00:06:36;;;;;;;8.53;3.43;;;-2.50;99.90;;;-1.42;100.00;99026.69;5040191;28;20495;-77
2021/12/21 00:09:07;;;;;;;13.67;3.60;;;-2.40;99.90;;;-1.42;100.00;99024.13;5047061;28;20469;-77
2021/12/21 00:11:37;;;;;;;9.33;3.63;;;-2.40;99.90;;;-1.49;100.00;99022.03;5046767;28;20507;-77
2021/12/21 00:17:11;;;;;;;6.07;3.47;;;-2.50;99.90;;;-1.49;100.00;99020.28;5054728;28;20882;-77
2021/12/21 00:25:13;;;;;;;5.30;3.43;;;-2.70;99.90;;;-1.61;100.00;99009.00;5043441;28;20471;-77
2021/12/21 00:27:52;;;;;;;9.63;3.83;;;-2.60;99.90;;;-1.68;100.00;99005.13;5042311;28;20760;-77
2021/12/21 00:30:22;;;;;;;12.03;4.63;;;-2.70;99.90;;;-1.72;100.00;99010.50;5044195;28;20463;-77
2021/12/21 00:32:53;;;;;;;6.97;3.80;;;-2.80;99.90;;;-1.62;100.00;99009.06;5044877;28;20466;-78
2021/12/21 00:35:24;;;;;;;9.27;3.73;;;-2.60;99.90;;;-1.65;100.00;99007.50;5045873;28;20550;-77
2021/12/21 00:37:56;;;;;;;11.80;3.80;;;-2.70;99.90;;;-1.67;100.00;99001.66;5048602;28;20470;-77
2021/12/21 00:40:25;;;;;;;8.93;4.50;;;-2.70;99.90;;;-1.63;100.00;98997.97;5048623;28;20466;-77
2021/12/21 00:42:55;;;;;;;6.10;3.53;;;-2.50;99.90;;;-1.64;100.00;98993.78;5049347;28;20467;-77
2021/12/21 00:45:25;;;;;;;7.70;3.47;;;-2.60;99.90;;;-1.73;100.00;99003.72;5047313;28;20468;-77
2021/12/21 00:47:57;;;;;;;8.53;3.90;;;-2.70;99.90;;;-1.68;100.00;99000.00;5048380;28;20467;-78
2021/12/21 00:50:29;;;;;;;5.80;3.90;;;-2.50;99.90;;;-1.71;100.00;98997.63;5041455;28;20712;-77
2021/12/21 00:52:59;;;;;;;8.93;3.83;;;-2.70;99.90;;;-1.74;100.00;98996.97;5051165;28;20476;-77
2021/12/21 00:55:29;;;;;;;3.50;2.87;;;-2.70;99.90;;;-1.82;100.00;98994.81;5047981;28;20461;-77
2021/12/21 00:57:58;;;;;;;11.23;4.33;;;-2.90;99.90;;;-1.84;100.00;98994.06;5048030;28;20468;-78
2021/12/21 01:00:28;;;;;;;5.93;3.97;;;-2.90;99.90;;;-1.83;100.00;98995.72;5048147;28;20483;-77
2021/12/21 01:03:05;;;;;;;6.90;3.57;;;-2.80;99.90;;;-1.87;100.00;98996.81;5046960;28;20463;-77
2021/12/21 01:05:42;;;;;;;5.57;3.37;;;-2.90;99.90;;;-2.03;100.00;98984.03;5046501;28;20550;-77
2021/12/21 01:08:16;;;;;;;6.30;3.53;;;-3.00;99.90;;;-1.91;100.00;98982.53;5045855;28;20519;-77
2021/12/21 01:11:00;;;;;;;9.87;3.90;;;-2.80;99.90;;;-1.94;100.00;98995.50;5046660;28;20490;-79
2021/12/21 01:13:48;;;;;;;8.13;3.80;;;-2.90;99.90;;;-1.96;100.00;98983.69;5042453;28;20509;-77
2021/12/21 01:16:29;;;;;;;10.57;4.10;;;-3.00;99.90;;;-2.05;100.00;98990.16;5046494;28;20584;-77
2021/12/21 01:21:59;;;;;;;6.07;3.40;;;-3.00;99.90;;;-2.08;100.00;98985.19;5039651;28;20465;-77
2021/12/21 01:24:43;;;;;;;6.80;2.57;;;-3.10;99.90;;;-2.12;100.00;98988.88;5048786;28;20963;-77
2021/12/21 01:27:24;;;;;;;10.07;4.20;;;-3.10;99.90;;;-2.10;100.00;98998.09;5046937;28;20501;-78
2021/12/21 01:30:04;;;;;;;14.40;4.53;;;-3.10;99.90;;;-2.18;100.00;98990.00;5041540;28;20835;-77
2021/12/21 01:32:52;;;;;;;4.97;3.30;;;-3.20;99.90;;;-2.10;100.00;98985.28;5045264;28;20972;-77
2021/12/21 01:35:28;;;;;;;9.77;3.37;;;-3.10;99.90;;;-2.05;100.00;98983.28;5045659;28;20456;-77
2021/12/21 01:38:03;;;;;;;4.60;3.60;;;-3.00;99.90;;;-2.05;100.00;98990.16;5048901;28;20471;-77
2021/12/21 01:40:41;;;;;;;8.10;3.83;;;-3.00;99.90;;;-2.02;100.00;98987.44;5051086;28;20529;-78
2021/12/21 01:43:22;;;;;;;9.57;3.90;;;-2.90;99.90;;;-2.07;100.00;98992.81;5046428;28;20554;-77
2021/12/21 01:51:58;;;;;;;8.30;3.50;;;-3.10;99.90;;;-2.14;100.00;98995.78;4999546;28;20465;-78
2021/12/21 01:54:27;;;;;;;5.67;3.77;;;-3.00;99.90;;;-2.06;100.00;98993.63;5005840;28;20582;-78
2021/12/21 01:56:59;;;;;;;16.40;3.90;;;-2.90;99.90;;;-2.03;100.00;98990.91;5026026;28;20999;-78
2021/12/21 01:59:29;;;;;;;5.30;3.60;;;-2.90;99.90;;;-2.08;100.00;98990.31;5049627;28;20733;-78
2021/12/21 02:01:59;;;;;;;5.37;3.07;;;-2.90;99.90;;;-2.15;100.00;98983.88;5044630;28;21189;-78
2021/12/21 02:04:28;;;;;;;7.10;3.40;;;-3.00;99.90;;;-2.21;100.00;98986.78;5048705;28;20529;-78
2021/12/21 02:07:00;;;;;;;7.40;3.00;;;-3.20;99.90;;;-2.14;100.00;98980.41;5047312;28;20495;-77
2021/12/21 02:09:37;;;;;;;5.90;3.00;;;-3.10;99.90;;;-2.20;100.00;98976.47;5043049;28;21018;-77
2021/12/21 02:12:11;;;;;;;7.80;3.50;;;-3.20;99.90;;;-2.28;100.00;98973.50;5042178;28;20472;-78
2021/12/21 02:14:44;;;;;;;10.53;3.30;;;-3.30;99.90;;;-2.30;100.00;98970.22;5046296;28;20536;-77
2021/12/21 02:17:39;;;;;;;5.50;3.07;;;-3.30;99.90;;;-2.32;100.00;98974.56;5053431;28;20562;-77
2021/12/21 02:20:20;;;;;;;5.50;3.13;;;-3.30;99.90;;;-2.36;100.00;98970.53;5038898;28;20974;-78
2021/12/21 02:22:59;;;;;;;9.03;2.80;;;-3.40;99.90;;;-2.33;100.00;98970.38;5044373;28;20462;-77
2021/12/21 02:25:50;;;;;;;9.47;3.27;;;-3.30;99.90;;;-2.41;100.00;98971.69;5045422;28;20473;-78
2021/12/21 02:31:13;;;;;;;6.27;3.17;;;-3.40;99.90;;;-2.41;100.00;98966.56;5038569;28;20464;-77
2021/12/21 02:33:48;;;;;;;5.30;2.80;;;-3.40;99.90;;;-2.44;100.00;98956.50;5041984;28;20985;-78
2021/12/21 02:36:18;;;;;;;9.70;2.80;;;-3.40;99.90;;;-2.48;100.00;98955.84;5045247;28;20983;-78
2021/12/21 02:38:48;;;;;;;9.07;3.03;;;-3.40;99.90;;;-2.55;100.00;98954.53;5046576;28;20525;-77
2021/12/21 02:41:18;;;;;;;9.63;3.30;;;-3.50;99.90;;;-2.54;100.00;98956.19;5046724;28;20473;-77
2021/12/21 02:43:48;;;;;;;6.80;2.70;;;-3.50;99.90;;;-2.46;100.00;98961.69;5047052;28;20515;-78
2021/12/21 02:46:18;;;;;;;7.87;2.57;;;-3.40;99.90;;;-2.55;100.00;98962.19;5043743;28;20470;-78
2021/12/21 02:48:48;;;;;;;4.50;2.83;;;-3.50;99.90;;;-2.61;100.00;98959.97;5049801;28;20459;-78
2021/12/21 02:51:20;;;;;;;5.27;3.10;;;-3.60;99.90;;;-2.62;100.00;98950.63;5048361;28;20454;-77
2021/12/21 02:53:49;;;;;;;3.03;2.57;;;-3.60;99.90;;;-2.64;100.00;98953.28;5048639;28;20520;-77
2021/12/21 02:56:19;;;;;;;5.33;2.23;;;-3.60;99.90;;;-2.61;100.00;98954.88;5048553;28;20822;-77
2021/12/21 02:58:49;;;;;;;9.50;3.13;;;-3.60;99.90;;;-2.59;100.00;98953.88;5048897;28;20479;-78
2021/12/21 03:01:19;;;;;;;7.23;2.90;;;-3.60;99.90;;;-2.63;100.00;98962.59;5047850;28;20506;-77
2021/12/21 03:03:49;;;;;;;4.40;2.87;;;-3.60;99.90;;;-2.59;100.00;98964.09;5047864;28;20466;-77
2021/12/21 03:06:53;;;;;;;3.67;2.60;;;-3.50;99.90;;;-2.64;100.00;98971.19;5047107;28;20518;-78
2021/12/21 03:09:37;;;;;;;10.63;2.60;;;-3.70;99.90;;;-2.70;100.00;98963.00;5036759;28;20502;-78
2021/12/21 03:12:30;;;;;;;7.40;2.60;;;-3.70;99.90;;;-2.70;100.00;98960.44;5045622;28;20485;-77
2021/12/21 03:14:59;;;;;;;8.40;2.63;;;-3.70;99.90;;;-2.60;100.00;98959.88;5045552;28;20490;-78
2021/12/21 03:17:29;;;;;;;5.43;2.30;;;-3.50;99.90;;;-2.64;100.00;98960.16;5047363;28;20827;-77
2021/12/21 03:19:59;;;;;;;4.33;2.80;;;-3.60;99.90;;;-2.67;100.00;98957.72;5044219;28;20520;-77
2021/12/21 03:22:31;;;;;;;12.13;3.13;;;-3.70;99.90;;;-2.74;100.00;98954.69;5046865;28;20556;-77
2021/12/21 03:25:00;;;;;;;6.07;2.63;;;-3.80;99.90;;;-2.72;100.00;98958.00;5037488;28;20903;-78
2021/12/21 03:27:31;;;;;;;3.77;2.40;;;-3.70;99.90;;;-2.67;100.00;98950.06;5042242;28;20493;-77
2021/12/21 03:30:00;;;;;;;6.20;2.20;;;-3.60;99.90;;;-2.75;100.00;98953.03;5040181;28;20489;-78
2021/12/21 03:32:30;;;;;;;4.80;2.73;;;-3.60;99.90;;;-2.81;100.00;98958.47;5044724;28;20499;-77
2021/12/21 03:35:01;;;;;;;6.00;2.80;;;-3.80;99.90;;;-2.74;100.00;98949.56;5046160;28;20487;-78
2021/12/21 03:37:32;;;;;;;4.53;2.60;;;-3.60;99.90;;;-2.79;100.00;98949.00;5042520;28;21002;-77
2021/12/21 03:40:03;;;;;;;2.73;1.90;;;-3.80;99.90;;;-2.79;100.00;98937.94;5039448;28;20490;-77
2021/12/21 03:42:33;;;;;;;3.03;2.73;;;-3.70;99.90;;;-2.72;100.00;98947.75;5038982;28;20542;-78
2021/12/21 03:45:03;;;;;;;6.40;2.70;;;-3.60;99.90;;;-2.74;100.00;98938.53;5039505;28;20930;-77
2021/12/21 03:47:33;;;;;;;3.87;2.17;;;-3.70;99.90;;;-2.74;100.00;98938.53;5045449;28;21012;-77
2021/12/21 03:50:13;;;;;;;9.03;2.60;;;-3.60;99.90;;;-2.80;100.00;98937.09;5044180;28;20804;-78
2021/12/21 03:52:45;;;;;;;5.90;2.70;;;-3.70;99.90;;;-2.70;100.00;98937.41;5040859;28;20473;-77
2021/12/21 03:55:17;;;;;;;4.23;2.43;;;-3.60;99.90;;;-2.62;100.00;98933.56;5045747;28;20457;-77
2021/12/21 03:57:47;;;;;;;3.37;2.00;;;-3.40;99.90;;;-2.60;100.00;98933.47;5044799;28;20459;-77
2021/12/21 04:00:20;;;;;;;5.83;2.00;;;-3.40;99.90;;;-2.57;100.00;98939.22;5044868;28;20489;-77
2021/12/21 04:02:50;;;;;;;2.83;2.00;;;-3.30;99.90;;;-2.58;100.00;98935.03;5047226;28;20438;-77
2021/12/21 04:05:19;;;;;;;2.93;2.37;;;-3.30;99.90;;;-2.61;100.00;98942.91;5050215;28;20462;-77
2021/12/21 04:07:51;;;;;;;3.20;2.23;;;-3.30;99.90;;;-2.54;100.00;98940.81;5049771;28;21073;-77
2021/12/21 04:10:21;;;;;;;7.60;2.80;;;-3.20;99.90;;;-2.46;100.00;98932.72;5041030;28;20488;-77
2021/12/21 04:12:50;;;;;;;3.80;2.23;;;-3.20;99.90;;;-2.43;100.00;98937.69;5045081;28;20485;-76
2021/12/21 04:15:23;;;;;;;3.87;1.73;;;-3.20;99.90;;;-2.41;100.00;98935.84;5043373;28;20459;-77
2021/12/21 04:17:54;;;;;;;2.33;2.10;;;-3.20;99.90;;;-2.42;100.00;98934.19;5049377;28;20459;-77
2021/12/21 04:20:23;;;;;;;2.57;2.03;;;-3.20;99.90;;;-2.48;100.00;98935.38;5047997;28;20548;-77
2021/12/21 04:22:54;;;;;;;3.03;1.70;;;-3.20;99.90;;;-2.50;100.00;98936.38;5042377;28;20527;-76
2021/12/21 04:25:24;;;;;;;5.20;2.23;;;-3.20;99.90;;;-2.51;100.00;98940.66;5051156;28;20461;-77
2021/12/21 04:27:55;;;;;;;3.23;2.30;;;-3.20;99.90;;;-2.51;100.00;98942.38;5043328;28;20494;-77
2021/12/21 04:30:25;;;;;;;6.50;2.83;;;-3.20;99.90;;;-2.51;100.00;98940.66;5046736;28;20471;-77
2021/12/21 04:32:55;;;;;;;2.90;2.00;;;-3.20;99.90;;;-2.47;100.00;98925.94;5043610;28;20454;-76
2021/12/21 04:35:23;;;;;;;4.07;2.00;;;-3.30;99.90;;;-2.45;100.00;98930.06;5046922;28;20879;-77
2021/12/21 04:37:58;;;;;;;6.70;2.20;;;-3.20;99.90;;;-2.44;100.00;98936.03;5044467;28;21002;-77
2021/12/21 04:40:39;;;;;;;4.10;2.50;;;-3.20;99.90;;;-2.54;100.00;98930.59;5042027;28;20470;-78
2021/12/21 04:43:08;;;;;;;4.73;2.27;;;-3.30;99.90;;;-2.60;100.00;98941.13;5045004;28;20496;-76
2021/12/21 04:45:37;;;;;;;2.77;2.40;;;-3.40;99.90;;;-2.57;100.00;98941.78;5048667;28;20465;-77
2021/12/21 04:48:08;;;;;;;3.73;1.77;;;-3.30;99.90;;;-2.59;100.00;98937.69;5048919;28;20484;-77
2021/12/21 04:50:40;;;;;;;3.30;2.30;;;-3.30;99.90;;;-2.66;100.00;98947.41;5046202;28;20498;-77
2021/12/21 04:53:11;;;;;;;2.40;1.97;;;-3.30;99.90;;;-2.63;100.00;98931.06;5045617;28;20855;-79
2021/12/21 04:55:41;;;;;;;5.23;2.20;;;-3.30;99.90;;;-2.58;100.00;98939.34;5048635;28;20456;-76
2021/12/21 04:58:12;;;;;;;3.47;2.33;;;-3.30;99.90;;;-2.60;100.00;98934.28;5047223;28;20486;-76
2021/12/21 05:00:42;;;;;;;2.07;1.90;;;-3.30;99.90;;;-2.59;100.00;98932.56;5045136;28;20879;-77
2021/12/21 05:03:11;;;;;;;3.73;2.00;;;-3.30;99.90;;;-2.57;100.00;98931.56;5050847;28;20795;-77
2021/12/21 05:05:43;;;;;;;1.90;1.67;;;-3.30;99.90;;;-2.56;100.00;98933.22;5047058;28;20456;-76
2021/12/21 05:08:20;;;;;;;3.60;1.93;;;-3.30;99.90;;;-2.57;100.00;98929.00;5055840;28;20502;-76
2021/12/21 05:10:53;;;;;;;9.73;2.07;;;-3.30;99.90;;;-2.55;100.00;98924.63;5045531;28;20856;-76
2021/12/21 05:13:28;;;;;;;6.70;2.30;;;-3.20;99.90;;;-2.60;100.00;98920.66;5044408;28;20472;-76
2021/12/21 05:15:58;;;;;;;2.10;1.87;;;-3.30;99.90;;;-2.61;100.00;98924.97;5041044;28;20956;-75
2021/12/21 05:18:29;;;;;;;4.07;2.50;;;-3.30;99.90;;;-2.58;100.00;98929.09;5047116;28;20495;-73
2021/12/21 05:21:00;;;;;;;3.20;1.90;;;-3.30;99.90;;;-2.56;100.00;98924.72;5041334;28;20505;-74
2021/12/21 05:23:30;;;;;;;2.37;1.60;;;-3.40;99.90;;;-2.60;100.00;98920.66;5044497;28;20995;-74
2021/12/21 05:26:00;;;;;;;3.83;2.07;;;-3.40;99.90;;;-2.69;100.00;98922.00;5051087;28;20965;-75
2021/12/21 05:28:30;;;;;;;2.70;2.07;;;-3.40;99.90;;;-2.68;100.00;98917.72;5051242;28;20494;-73
2021/12/21 05:31:00;;;;;;;2.20;1.53;;;-3.30;99.90;;;-2.70;100.00;98930.56;5051273;28;21001;-74
2021/12/21 05:33:30;;;;;;;3.00;2.20;;;-3.40;99.90;;;-2.74;100.00;98931.63;5050857;28;20816;-75
2021/12/21 05:36:00;;;;;;;3.20;2.00;;;-3.60;99.90;;;-2.79;100.00;98931.09;5049854;28;20447;-75
2021/12/21 05:38:34;;;;;;;5.23;2.50;;;-3.70;99.90;;;-2.86;100.00;98929.75;5046193;28;20469;-75
2021/12/21 05:41:11;;;;;;;3.13;1.90;;;-3.70;99.90;;;-3.00;100.00;98929.66;5049889;28;20450;-75
2021/12/21 05:43:42;;;;;;;5.37;2.00;;;-3.90;99.90;;;-3.07;100.00;98928.34;5050394;28;20451;-75
2021/12/21 05:46:12;;;;;;;4.23;2.00;;;-4.00;99.90;;;-3.15;100.00;98927.91;5051176;28;20423;-75
2021/12/21 05:48:43;;;;;;;3.83;2.43;;;-4.10;99.90;;;-3.08;100.00;98931.78;5049990;28;20472;-75
2021/12/21 05:51:13;;;;;;;2.03;1.57;;;-4.00;99.90;;;-3.10;100.00;98941.28;5049839;28;20503;-75
2021/12/21 05:53:50;;;;;;;2.23;1.70;;;-3.90;99.90;;;-3.15;100.00;98938.94;5049585;28;20441;-75
2021/12/21 05:56:21;;;;;;;3.47;1.90;;;-3.90;99.90;;;-3.10;100.00;98938.72;5051704;28;20431;-75
2021/12/21 05:58:51;;;;;;;4.70;1.93;;;-3.90;99.90;;;-3.09;100.00;98938.63;5051760;28;20476;-75
2021/12/21 06:01:20;;;;;;;1.63;1.53;;;-3.90;99.90;;;-3.11;100.00;98939.63;5051900;28;20483;-75
2021/12/21 06:03:50;;;;;;;1.93;1.77;;;-4.00;99.90;;;-3.16;100.00;98937.28;5051822;28;20863;-75
2021/12/21 06:06:19;;;;;;;3.80;1.93;;;-4.00;99.90;;;-3.33;100.00;98933.97;5049465;28;20473;-75
2021/12/21 06:08:52;;;;;;;7.97;2.00;;;-4.20;99.90;;;-3.27;100.00;98943.88;5048018;28;20498;-75
2021/12/21 06:11:23;;;;;;;3.20;1.93;;;-4.10;99.90;;;-3.26;100.00;98945.53;5053672;28;20541;-75
2021/12/21 06:14:15;;;;;;;2.33;1.80;;;-4.20;99.90;;;-3.26;100.00;98940.41;5053328;28;20460;-75
2021/12/21 06:22:49;;;;;;;2.33;1.60;;;-4.10;99.90;;;-3.27;100.00;98943.88;4969634;28;20487;-75
2021/12/21 06:25:35;;;;;;;2.00;1.70;;;-4.10;99.90;;;-3.26;100.00;98932.72;4968097;28;20507;-74
2021/12/21 06:28:06;;;;;;;2.93;1.67;;;-4.10;99.90;;;-3.28;100.00;98949.91;5013456;28;20458;-75
2021/12/21 06:30:39;;;;;;;2.70;1.90;;;-4.20;99.90;;;-3.29;100.00;98945.69;5050879;28;20494;-75
2021/12/21 06:33:10;;;;;;;8.03;2.43;;;-4.20;99.90;;;-3.32;100.00;98948.41;5051454;28;20447;-75
2021/12/21 06:35:42;;;;;;;2.60;1.90;;;-4.10;99.90;;;-3.36;100.00;98950.28;5051054;28;20816;-75
2021/12/21 06:38:12;;;;;;;3.63;2.20;;;-4.20;99.90;;;-3.32;100.00;98950.94;5047139;28;20456;-75
2021/12/21 06:40:46;;;;;;;2.27;2.07;;;-4.10;99.90;;;-3.31;100.00;98948.34;5050316;28;20486;-75
2021/12/21 06:43:18;;;;;;;3.47;1.67;;;-4.20;99.90;;;-3.33;100.00;98947.56;5050267;28;20452;-75
2021/12/21 06:45:54;;;;;;;3.20;2.33;;;-4.20;99.90;;;-3.32;100.00;98943.28;5050717;28;20507;-74
2021/12/21 06:51:19;;;;;;;3.10;2.10;;;-4.20;99.90;;;-3.38;100.00;98928.25;5047052;28;20420;-74
2021/12/21 06:53:57;;;;;;;2.70;1.97;;;-4.20;99.90;;;-3.39;100.00;98929.16;5041693;28;20808;-74
2021/12/21 06:56:29;;;;;;;3.73;2.13;;;-4.20;99.90;;;-3.54;100.00;98935.06;5040002;28;20423;-75
2021/12/21 06:58:58;;;;;;;2.83;2.10;;;-4.40;99.90;;;-3.58;100.00;98940.34;5049814;28;20461;-75
2021/12/21 07:01:30;;;;;;;3.53;2.30;;;-4.50;99.90;;;-3.54;100.00;98940.19;5042494;28;20446;-75
2021/12/21 07:04:02;;;;;;;2.23;2.03;;;-4.40;99.90;;;-3.50;100.00;98946.78;5041330;28;20521;-75
2021/12/21 07:06:36;;;;;;;2.03;1.80;;;-4.40;99.90;;;-3.49;100.00;98946.69;5049730;28;20457;-75
2021/12/21 07:09:13;;;;;;;4.67;2.40;;;-4.40;99.90;;;-3.48;100.00;98952.66;5050514;28;20491;-75
2021/12/21 07:11:54;;;;;;;5.00;1.93;;;-4.40;99.90;;;-3.47;100.00;98951.75;5042291;28;20507;-75
2021/12/21 07:20:01;;;;;;;2.20;2.00;;;-4.30;99.90;;;-3.50;100.00;98965.50;5050805;28;20540;-74
2021/12/21 07:22:32;;;;;;;2.53;1.90;;;-4.40;99.90;;;-3.50;100.00;98962.94;5049424;28;20453;-74
2021/12/21 07:25:02;;;;;;;3.10;2.00;;;-4.40;99.90;;;-3.60;100.00;98965.13;5049445;28;20918;-74
2021/12/21 07:27:33;;;;;;;4.53;2.20;;;-4.40;99.90;;;-3.56;100.00;98963.25;5049427;28;20457;-75
2021/12/21 07:30:04;;;;;;;4.50;2.30;;;-4.40;99.90;;;-3.54;100.00;98951.25;5052331;28;20836;-74
2021/12/21 07:32:33;;;;;;;3.43;2.03;;;-4.30;99.90;;;-3.50;100.00;98951.88;5048492;28;20941;-75
2021/12/21 07:35:05;;;;;;;3.20;2.50;;;-4.40;99.90;;;-3.49;100.00;98954.38;5047706;28;20467;-74
2021/12/21 07:37:35;;;;;;;6.20;2.40;;;-4.30;99.90;;;-3.62;100.00;98961.00;5034824;28;20435;-74
2021/12/21 07:40:08;;;;;;;2.87;2.10;;;-4.50;99.90;;;-3.56;100.00;98958.97;5047965;28;20536;-75
2021/12/21 07:42:40;;;;;;;6.03;2.30;;;-4.40;99.90;;;-3.51;100.00;98960.47;5051624;28;20473;-74
2021/12/21 07:45:10;;;;;;;2.80;2.10;;;-4.40;99.90;;;-3.51;100.00;98963.03;5049456;28;20456;-74
2021/12/21 07:47:41;;;;;;;1.90;1.57;;;-4.30;99.90;;;-3.58;100.00;98963.34;5049581;28;20446;-75
2021/12/21 07:50:17;;;;;;;6.47;2.10;;;-4.40;99.90;;;-3.65;100.00;98968.81;5048854;28;21242;-75
2021/12/21 07:52:50;;;;;;;4.90;2.30;;;-4.50;99.90;;;-3.62;100.00;98964.41;5051802;28;20456;-74
2021/12/21 07:55:19;;;;;;;3.60;2.10;;;-4.40;99.90;;;-3.66;100.00;98965.44;5049688;28;20445;-75
2021/12/21 07:57:49;;;;;;;4.03;2.53;;;-4.60;99.90;;;-3.61;100.00;98970.34;5050037;28;20507;-75
2021/12/21 08:00:21;;;;;;;4.43;2.37;;;-4.40;99.90;;;-3.57;100.00;98966.69;5043143;28;20486;-74
2021/12/21 08:02:51;;;;;;;3.20;2.30;;;-4.40;99.90;;;-3.60;100.00;98966.84;5042555;28;20893;-74
2021/12/21 08:05:23;;;;;;;7.70;2.07;;;-4.40;99.90;;;-3.65;100.00;98972.22;5050590;28;20544;-75
2021/12/21 08:07:56;;;;;;;3.93;2.10;;;-4.40;99.90;;;-3.70;100.00;98971.59;5036078;28;20445;-75
2021/12/21 08:10:40;;;;;;;4.53;2.27;;;-4.40;99.90;;;-3.60;100.00;98970.25;5044107;28;20523;-75
2021/12/21 08:13:12;;;;;;;5.07;2.70;;;-4.40;99.90;;;-3.58;100.00;98965.91;5048818;28;20574;-74
2021/12/21 08:15:42;;;;;;;4.27;2.30;;;-4.40;99.90;;;-3.55;100.00;98972.56;5048718;28;20913;-74
2021/12/21 08:18:11;;;;;;;4.90;2.73;;;-4.30;99.90;;;-3.51;100.00;98974.09;5045389;28;20424;-75
2021/12/21 08:20:42;;;;;;;4.37;2.30;;;-4.30;99.90;;;-3.52;100.00;98979.25;5047389;28;20462;-74
2021/12/21 08:23:12;;;;;;;2.10;2.00;;;-4.30;99.90;;;-3.53;100.00;98980.16;5048967;28;20442;-75
2021/12/21 08:25:42;;;;;;;4.33;2.70;;;-4.30;99.90;;;-3.57;100.00;98974.38;5044306;28;20445;-74
2021/12/21 08:28:14;;;;;;;3.63;2.17;;;-4.40;99.90;;;-3.59;100.00;98971.91;5048593;28;20424;-75
2021/12/21 08:30:46;;;;;;;8.30;2.20;;;-4.40;99.90;;;-3.50;100.00;98974.88;5048668;28;20857;-75
2021/12/21 08:33:15;;;;;;;5.53;2.30;;;-4.30;99.90;;;-3.51;100.00;98971.53;5048679;28;20453;-75
2021/12/21 08:35:46;;;;;;;3.00;2.33;;;-4.30;99.90;;;-3.50;100.00;98983.38;5048620;28;20479;-75
2021/12/21 08:38:18;;;;;;;2.00;1.80;;;-4.30;99.90;;;-3.47;100.00;98982.41;5049977;28;20443;-75
2021/12/21 08:40:50;;;;;;;5.37;2.67;;;-4.30;99.90;;;-3.40;100.00;98984.56;5048837;28;20532;-75
2021/12/21 08:43:25;;;;;;;3.37;1.93;;;-4.20;99.90;;;-3.35;100.00;98981.78;5047815;28;20913;-74
2021/12/21 08:45:56;;;;;;;4.30;2.20;;;-4.20;99.90;;;-3.41;100.00;98997.44;5050612;28;20454;-75
2021/12/21 08:48:27;;;;;;;2.97;2.10;;;-4.20;99.90;;;-3.40;100.00;98992.22;5055031;28;20934;-75
2021/12/21 08:51:00;;;;;;;6.20;2.10;;;-4.00;99.90;;;-3.53;100.00;98987.81;5058414;28;20480;-75
2021/12/21 08:53:29;;;;;;;3.73;2.10;;;-4.20;99.90;;;-3.48;100.00;98988.44;5051933;28;20450;-76
2021/12/21 08:55:59;;;;;;;5.07;2.40;;;-4.20;99.90;;;-3.39;100.00;98987.94;5055269;28;20457;-76
2021/12/21 08:58:31;;;;;;;3.50;2.30;;;-4.20;99.90;;;-3.33;100.00;98985.13;5050980;28;20820;-75
2021/12/21 09:01:01;;;;;;;9.57;2.17;;;-4.10;99.90;;;-3.31;100.00;98985.84;5049053;28;20445;-75
2021/12/21 09:03:33;;;;;;;2.40;2.20;;;-4.00;99.90;;;-3.37;100.00;98981.06;5052095;28;20449;-75
2021/12/21 09:06:04;;;;;;;5.53;2.13;;;-4.20;99.90;;;-3.34;100.00;98986.00;5049485;28;20461;-75
2021/12/21 09:08:34;;;;;;;11.63;2.40;;;-4.10;99.90;;;-3.29;100.00;98982.31;5045751;28;20441;-75
2021/12/21 09:11:06;;;;;;;5.30;2.57;;;-4.00;99.90;;;-3.26;100.00;98981.31;5051017;28;20501;-75
2021/12/21 09:13:36;;;;;;;4.33;2.53;;;-4.00;99.90;;;-3.22;100.00;98980.25;5045615;28;20478;-75
2021/12/21 09:16:08;;;;;;;2.27;2.03;;;-3.90;99.90;;;-3.15;100.00;98972.19;5052173;28;20442;-75
2021/12/21 09:18:37;;;;;;;4.50;2.57;;;-3.90;99.90;;;-3.20;100.00;98971.63;5048490;28;20494;-75
2021/12/21 09:21:07;;;;;;;3.43;2.47;;;-3.90;99.90;;;-3.12;100.00;98978.88;5051248;28;20447;-74
2021/12/21 09:23:37;;;;;;;2.57;2.17;;;-3.90;99.90;;;-3.12;100.00;98984.00;5053366;28;20478;-75
2021/12/21 09:26:06;;;;;;;3.87;2.40;;;-3.90;99.90;;;-3.12;100.00;98984.81;5051088;28;20465;-75
2021/12/21 09:28:37;;;;;;;3.03;2.47;;;-3.90;99.90;;;-3.08;100.00;98985.50;5051612;28;20420;-75
2021/12/21 09:31:08;;;;;;;2.13;1.80;;;-3.90;99.90;;;-3.07;100.00;98984.59;5051316;28;20503;-75
2021/12/21 09:33:37;;;;;;;5.20;2.30;;;-3.80;99.90;;;-2.99;100.00;98989.31;5045664;28;20449;-74
2021/12/21 09:36:07;;;;;;;5.63;2.60;;;-3.70;99.90;;;-2.99;100.00;98989.31;5051399;28;20449;-75
2021/12/21 09:38:37;;;;;;;2.30;2.10;;;-3.70;99.90;;;-2.94;100.00;98985.59;5047963;28;20451;-75
2021/12/21 09:41:08;;;;;;;2.50;2.30;;;-3.70;99.90;;;-2.93;100.00;98979.59;5050906;28;20504;-75
2021/12/21 09:43:40;;;;;;;7.80;2.50;;;-3.60;99.90;;;-2.87;100.00;98978.44;5051498;28;20455;-75
2021/12/21 09:46:11;;;;;;;5.43;2.70;;;-3.60;99.90;;;-2.83;100.00;98975.63;5047019;28;20457;-75
2021/12/21 09:48:41;;;;;;;4.90;2.80;;;-3.50;99.90;;;-2.80;100.00;98984.88;5050423;28;20449;-75
2021/12/21 09:51:11;;;;;;;5.87;3.13;;;-3.50;99.90;;;-2.74;100.00;98976.91;5053128;28;20852;-75
2021/12/21 09:53:42;;;;;;;7.70;2.50;;;-3.50;99.90;;;-2.73;100.00;98991.31;5041641;28;20935;-75
2021/12/21 09:56:13;;;;;;;7.20;3.30;;;-3.50;99.90;;;-2.71;100.00;98980.09;5052434;28;20452;-75
2021/12/21 09:58:44;;;;;;;5.70;3.30;;;-3.40;99.90;;;-2.66;100.00;98978.13;5042844;28;20479;-75
2021/12/21 10:01:15;;;;;;;4.07;2.70;;;-3.30;99.90;;;-2.65;100.00;98984.91;5050021;28;20466;-75
2021/12/21 10:03:45;;;;;;;6.03;3.13;;;-3.40;99.90;;;-2.64;100.00;98981.41;5050895;28;20462;-75
2021/12/21 10:06:16;;;;;;;5.53;3.20;;;-3.40;99.90;;;-2.56;100.00;98976.72;5050366;28;20928;-75
2021/12/21 10:08:45;;;;;;;4.37;2.70;;;-3.30;99.90;;;-2.58;100.00;98976.00;5053426;28;20479;-75
2021/12/21 10:11:22;;;;;;;9.20;3.13;;;-3.30;99.90;;;-2.50;100.00;98964.53;5046068;28;20965;-75
2021/12/21 10:13:53;;;;;;;5.67;3.13;;;-3.10;99.90;;;-2.44;100.00;98976.97;5049204;28;20914;-75
2021/12/21 10:16:24;;;;;;;5.77;3.00;;;-3.10;99.90;;;-2.36;100.00;98974.84;5051429;28;20442;-74
2021/12/21 10:18:54;;;;;;;7.90;3.90;;;-3.10;99.90;;;-2.30;100.00;98972.78;5053177;28;21007;-75
2021/12/21 10:21:24;;;;;;;7.97;4.03;;;-3.00;99.90;;;-2.34;100.00;98971.28;5042519;28;20456;-75
2021/12/21 10:23:55;;;;;;;4.90;3.30;;;-3.10;99.90;;;-2.29;100.00;98965.91;5047901;28;20490;-75
2021/12/21 10:26:30;;;;;;;4.97;3.00;;;-3.00;99.90;;;-2.21;100.00;98966.28;5050153;28;20458;-75
2021/12/21 10:29:05;;;;;;;4.40;2.97;;;-2.80;99.90;;;-2.14;100.00;98967.59;5047991;28;21003;-75
2021/12/21 10:31:40;;;;;;;5.83;3.00;;;-2.80;99.90;;;-2.08;100.00;98951.88;5050059;28;20487;-75
2021/12/21 10:34:15;;;;;;;12.47;4.30;;;-2.80;99.90;;;-2.02;100.00;98946.44;5050125;28;20469;-75
2021/12/21 10:36:49;;;;;;;9.67;3.80;;;-2.70;99.90;;;-1.96;100.00;98945.25;5049948;28;20450;-75
2021/12/21 10:39:24;;;;;;;7.30;3.27;;;-2.60;99.90;;;-1.93;100.00;98939.97;5044471;28;20517;-75
2021/12/21 10:42:02;;;;;;;7.03;3.47;;;-2.60;99.90;;;-1.93;100.00;98943.34;5043894;28;20454;-75
2021/12/21 10:44:33;;;;;;;9.70;4.20;;;-2.60;99.90;;;-1.89;100.00;98949.97;5040644;28;20539;-75
2021/12/21 10:47:05;;;;;;;15.27;6.33;;;-2.60;99.90;;;-1.84;100.00;98949.72;5048812;28;20486;-75
2021/12/21 10:49:37;;;;;;;12.30;4.57;;;-2.60;99.90;;;-1.79;100.00;98940.00;5051644;28;20936;-75
2021/12/21 10:52:14;;;;;;;4.57;3.60;;;-2.50;99.90;;;-1.71;100.00;98948.91;5043429;28;20584;-75
2021/12/21 10:54:46;;;;;;;3.97;3.17;;;-2.30;99.90;;;-1.67;100.00;98949.56;5052469;28;20988;-75
2021/12/21 10:57:20;;;;;;;6.20;2.97;;;-2.30;99.90;;;-1.62;100.00;98945.81;5049485;28;20450;-75
2021/12/21 10:59:54;;;;;;;6.10;2.93;;;-2.20;99.90;;;-1.54;100.00;98938.50;5050351;28;20487;-75
2021/12/21 11:02:29;;;;;;;4.63;2.23;;;-2.10;99.90;;;-1.48;100.00;98939.03;5051390;28;20458;-75
2021/12/21 11:05:03;;;;;;;9.53;2.90;;;-2.10;99.90;;;-1.45;100.00;98939.69;5048738;28;20440;-75
2021/12/21 11:07:40;;;;;;;4.10;2.97;;;-2.10;99.90;;;-1.42;100.00;98929.25;5049655;28;20457;-75
2021/12/21 11:10:14;;;;;;;9.80;2.80;;;-2.00;99.90;;;-1.37;100.00;98934.13;5041257;28;20482;-75